Lowlands Kamsar — 3FCG2 — position and weather

sailwx.info

Track history (hours):
 
Tides and Currents Weather Stations Pressure Air Temp Water Temp Dewpoint Dewpoint Depression Visibility Wind Speed Wind Dir Waves Ship Positions

Lowlands Kamsar

Last reported at 2018-Apr-17 06:42 UTC. Time now 2018-Apr-23 03:52 UTC.
Position S 28°06' E 154°05'.

Length 229 m; draft 13.8 m.

Type: Cargo ship. MMSI: 351916000.

Date/timePositionNaut miles runAvg speedWind from/ knotsBaromVisibWave heightAir tempDewpointWater temp
2018-Apr-17 06:42S 28°06' E 154°05'211.6
2018-Apr-17 06:30S 28°09' E 154°05'711.6
2018-Apr-17 05:54S 28°16' E 154°05'27311.0
2018-Apr-16 05:06S 32°37' E 152°34'112.9
2018-Apr-16 05:00S 32°38' E 152°32'713.1
2018-Apr-16 04:30S 32°42' E 152°27'613.0
2018-Apr-16 04:00S 32°47' E 152°21'713.3
2018-Apr-16 03:30S 32°51' E 152°15'713.4
2018-Apr-16 03:00S 32°55' E 152°09'612.8
2018-Apr-16 02:30S 32°59' E 152°02'612.6
2018-Apr-16 02:00S 33°00' E 151°55'611.5
2018-Apr-16 01:30S 32°56' E 151°50'3 5.5
2018-Apr-16 01:00S 32°55' E 151°47'2 3.6
2018-Apr-16 00:30S 32°54' E 151°46'1 0.8
2018-Apr-15 23:38S 32°53' E 151°46'0 0.0
2018-Apr-15 23:23S 32°53' E 151°46'0 0.0
2018-Apr-15 22:59S 32°53' E 151°46'0 0.0
2018-Apr-15 22:23S 32°53' E 151°46'0 0.0
2018-Apr-15 21:59S 32°53' E 151°46'0 0.0
2018-Apr-15 21:29S 32°53' E 151°46'0 0.0
2018-Apr-15 20:59S 32°53' E 151°46'0 0.0
2018-Apr-15 20:17S 32°53' E 151°46'0 0.0
2018-Apr-15 19:47S 32°53' E 151°46'0 0.0
2018-Apr-15 19:29S 32°53' E 151°46'0 0.0
2018-Apr-15 18:59S 32°53' E 151°46'0 0.0
2018-Apr-15 18:29S 32°53' E 151°46'0 0.0
2018-Apr-15 16:50S 32°53' E 151°46'0 0.0
2018-Apr-15 16:29S 32°53' E 151°46'0 0.0
2018-Apr-15 15:56S 32°53' E 151°46'0 0.0
2018-Apr-15 15:29S 32°53' E 151°46'0 0.0
2018-Apr-15 14:59S 32°53' E 151°46'0 0.0
2018-Apr-15 14:20S 32°53' E 151°46'0 0.0
2018-Apr-15 13:59S 32°53' E 151°46'0 0.0
2018-Apr-15 13:29S 32°53' E 151°46'0 0.0
2018-Apr-15 12:59S 32°53' E 151°46'0 0.0
2018-Apr-15 12:29S 32°53' E 151°46'0 0.0
2018-Apr-15 11:59S 32°53' E 151°46'0 0.0
2018-Apr-15 11:29S 32°53' E 151°46'0 0.0
2018-Apr-15 10:59S 32°53' E 151°46'0 0.0
2018-Apr-15 10:29S 32°53' E 151°46'0 0.0
2018-Apr-15 09:59S 32°53' E 151°46'0 0.0
2018-Apr-15 09:29S 32°53' E 151°46'0 0.0
2018-Apr-15 08:59S 32°53' E 151°46'0 0.0
2018-Apr-15 08:29S 32°53' E 151°46'0 0.0
2018-Apr-15 07:59S 32°53' E 151°46'0 0.0
2018-Apr-15 07:29S 32°53' E 151°46'0 0.0
2018-Apr-15 06:59S 32°53' E 151°46'0 0.0
2018-Apr-15 06:29S 32°53' E 151°46'0 0.0
2018-Apr-15 05:59S 32°53' E 151°46'0 0.0
2018-Apr-15 05:29S 32°53' E 151°46'0 0.0
2018-Apr-15 04:59S 32°53' E 151°46'0 0.0
2018-Apr-15 04:29S 32°53' E 151°46'0 0.0
2018-Apr-15 03:59S 32°53' E 151°46'0 0.0
2018-Apr-15 03:29S 32°53' E 151°46'0 0.0
2018-Apr-15 02:59S 32°53' E 151°46'0 0.0
2018-Apr-15 02:29S 32°53' E 151°46'0 0.0
2018-Apr-15 01:59S 32°53' E 151°46'0 0.8
2018-Apr-15 01:30S 32°53' E 151°46'2 3.4
2018-Apr-15 01:00S 32°55' E 151°47'4 7.1
2018-Apr-15 00:30S 32°55' E 151°51'4 8.6
2018-Apr-15 00:00S 32°59' E 151°53'3 6.3
2018-Apr-14 23:30S 33°01' E 151°55'4 8.7
2018-Apr-14 23:00S 33°05' E 151°58'4 8.1
2018-Apr-14 22:30S 33°09' E 152°00'5 9.6
2018-Apr-14 22:00S 33°13' E 152°03'14 1.9
2018-Apr-14 14:19S 33°27' E 152°04'1 2.2
2018-Apr-14 14:00S 33°26' E 152°03'1 1.7
2018-Apr-14 13:30S 33°26' E 152°03'1 1.7
2018-Apr-14 13:00S 33°25' E 152°03'1 1.9
2018-Apr-14 12:30S 33°24' E 152°03'1 2.2
2018-Apr-14 12:00S 33°23' E 152°04'1 2.6
2018-Apr-14 11:30S 33°21' E 152°03'1 2.6
2018-Apr-14 11:00S 33°20' E 152°04'1 2.7
2018-Apr-14 10:29S 33°19' E 152°04'2 2.9
2018-Apr-14 09:57S 33°17' E 152°04'1 3.0
2018-Apr-14 09:30S 33°16' E 152°04'1 2.9
2018-Apr-14 09:00S 33°14' E 152°05'1 2.4
2018-Apr-14 08:29S 33°13' E 152°06'1 2.9
2018-Apr-14 08:00S 33°12' E 152°06'1 2.1
2018-Apr-14 07:30S 33°11' E 152°07'1 1.3
2018-Apr-14 07:00S 33°11' E 152°07'1 1.6
2018-Apr-14 06:30S 33°10' E 152°08'1 2.0
2018-Apr-14 06:00S 33°09' E 152°08'1 1.9
2018-Apr-14 05:30S 33°08' E 152°09'1 2.1
2018-Apr-14 05:00S 33°07' E 152°09'1 2.4
2018-Apr-14 04:30S 33°06' E 152°10'1 2.7
2018-Apr-14 04:00S 33°05' E 152°10'1 2.9
2018-Apr-14 03:30S 33°04' E 152°11'1 1.7
2018-Apr-14 03:00S 33°03' E 152°12'1 1.5
2018-Apr-14 02:30S 33°03' E 152°13'1 1.6
2018-Apr-14 02:00S 33°02' E 152°14'1 1.3
2018-Apr-14 01:30S 33°02' E 152°14'1 1.3
2018-Apr-14 01:00S 33°02' E 152°15'1 1.0
2018-Apr-14 00:29S 33°01' E 152°16'0 0.8
2018-Apr-13 23:59S 33°01' E 152°16'0 0.8
2018-Apr-13 23:29S 33°01' E 152°16'0 0.8
2018-Apr-13 22:59S 33°01' E 152°17'0 0.8
2018-Apr-13 22:29S 33°00' E 152°17'0 0.7
2018-Apr-13 21:59S 33°00' E 152°17'0 0.6
2018-Apr-13 21:29S 32°60' E 152°17'0 0.8
2018-Apr-13 20:59S 32°59' E 152°17'1 1.0
2018-Apr-13 20:26S 32°59' E 152°17'0 1.1
2018-Apr-13 19:59S 32°58' E 152°17'1 1.4
2018-Apr-13 19:29S 32°58' E 152°17'0 0.4
2018-Apr-13 18:59S 32°58' E 152°17'0 0.6
2018-Apr-13 18:29S 32°57' E 152°17'0 0.6
2018-Apr-13 17:59S 32°57' E 152°18'0 0.3
2018-Apr-13 17:29S 32°57' E 152°18'0 0.4
2018-Apr-13 16:59S 32°57' E 152°18'1 2.6
2018-Apr-13 16:30S 32°58' E 152°19'713.8
2018-Apr-13 16:00S 33°04' E 152°23'713.9
2018-Apr-13 15:30S 33°10' E 152°27'713.1
2018-Apr-13 15:00S 33°15' E 152°32'2 5.0
2018-Apr-13 14:30S 33°17' E 152°34'2 4.2
2018-Apr-13 14:00S 33°15' E 152°34'2 3.1
2018-Apr-13 13:30S 33°13' E 152°34'1 2.8
2018-Apr-13 13:00S 33°12' E 152°33'1 2.7
2018-Apr-13 12:30S 33°11' E 152°33'1 2.6
2018-Apr-13 12:00S 33°09' E 152°32'1 2.6
2018-Apr-13 11:30S 33°08' E 152°32'1 2.4
2018-Apr-13 11:00S 33°07' E 152°31'1 2.4
2018-Apr-13 10:30S 33°06' E 152°30'1 2.5
2018-Apr-13 10:00S 33°05' E 152°29'1 2.4
2018-Apr-13 09:30S 33°05' E 152°28'1 2.4
2018-Apr-13 09:00S 33°04' E 152°27'1 2.1
2018-Apr-13 08:30S 33°03' E 152°26'1 2.0
2018-Apr-13 07:59S 33°02' E 152°26'1 1.9
2018-Apr-13 07:30S 33°01' E 152°25'1 1.7
2018-Apr-13 07:00S 33°00' E 152°25'1 1.7
2018-Apr-13 06:30S 32°59' E 152°25'1 1.8
2018-Apr-13 06:00S 32°59' E 152°24'1 1.8
2018-Apr-13 05:29S 32°58' E 152°24'1 1.6
2018-Apr-13 05:00S 32°57' E 152°24'1 1.6
2018-Apr-13 04:30S 32°56' E 152°24'1 1.5
2018-Apr-13 04:00S 32°55' E 152°24'1 1.3
2018-Apr-13 03:30S 32°55' E 152°24'1 1.2
2018-Apr-13 03:00S 32°54' E 152°24'0 0.9
2018-Apr-13 02:30S 32°54' E 152°25'0 0.5
2018-Apr-13 02:00S 32°54' E 152°25'0 0.3
2018-Apr-13 01:30S 32°53' E 152°25'0 0.3
2018-Apr-13 01:00S 32°53' E 152°25'0 0.3
2018-Apr-13 00:30S 32°53' E 152°25'0 0.2
2018-Apr-13 00:00S 32°53' E 152°25'0 0.3
2018-Apr-12 23:30S 32°53' E 152°25'0 0.8
2018-Apr-12 23:00S 32°53' E 152°25'0 0.5
2018-Apr-12 22:30S 32°52' E 152°25'3 6.8
2018-Apr-12 22:00S 32°50' E 152°28'713.2
2018-Apr-12 21:30S 32°46' E 152°34'713.8
2018-Apr-12 21:01S 32°41' E 152°40'815.9
2018-Apr-12 20:31S 32°37' E 152°48'816.4
2018-Apr-12 20:00S 32°31' E 152°55'5214.3
2018-Apr-12 16:20S 31°56' E 153°41'22113.5
2018-Apr-11 23:57S 28°17' E 154°13'613.0
2018-Apr-11 23:31S 28°12' E 154°13'713.0
2018-Apr-11 23:00S 28°05' E 154°13'712.5
2018-Apr-11 22:28S 27°58' E 154°12'  
Track history (hours):
 
Tides and Currents Weather Stations Pressure Air Temp Water Temp Dewpoint Dewpoint Depression Visibility Wind Speed Wind Dir Waves Ship Positions

Lowlands Kamsar

Last reported at 2018-Apr-17 06:42 UTC. Time now 2018-Apr-23 03:52 UTC.
Position S 28°06' E 154°05'.

Length 229 m; draft 13.8 m.

Type: Cargo ship. MMSI: 351916000.

Date/timePositionNaut miles runAvg speedWind from/ knotsBaromVisibWave heightAir tempDewpointWater temp
2018-Apr-17 06:42S 28°06' E 154°05'211.6
2018-Apr-17 06:30S 28°09' E 154°05'711.6
2018-Apr-17 05:54S 28°16' E 154°05'27311.0
2018-Apr-16 05:06S 32°37' E 152°34'112.9
2018-Apr-16 05:00S 32°38' E 152°32'713.1
2018-Apr-16 04:30S 32°42' E 152°27'613.0
2018-Apr-16 04:00S 32°47' E 152°21'713.3
2018-Apr-16 03:30S 32°51' E 152°15'713.4
2018-Apr-16 03:00S 32°55' E 152°09'612.8
2018-Apr-16 02:30S 32°59' E 152°02'612.6
2018-Apr-16 02:00S 33°00' E 151°55'611.5
2018-Apr-16 01:30S 32°56' E 151°50'3 5.5
2018-Apr-16 01:00S 32°55' E 151°47'2 3.6
2018-Apr-16 00:30S 32°54' E 151°46'1 0.8
2018-Apr-15 23:38S 32°53' E 151°46'0 0.0
2018-Apr-15 23:23S 32°53' E 151°46'0 0.0
2018-Apr-15 22:59S 32°53' E 151°46'0 0.0
2018-Apr-15 22:23S 32°53' E 151°46'0 0.0
2018-Apr-15 21:59S 32°53' E 151°46'0 0.0
2018-Apr-15 21:29S 32°53' E 151°46'0 0.0
2018-Apr-15 20:59S 32°53' E 151°46'0 0.0
2018-Apr-15 20:17S 32°53' E 151°46'0 0.0
2018-Apr-15 19:47S 32°53' E 151°46'0 0.0
2018-Apr-15 19:29S 32°53' E 151°46'0 0.0
2018-Apr-15 18:59S 32°53' E 151°46'0 0.0
2018-Apr-15 18:29S 32°53' E 151°46'0 0.0
2018-Apr-15 16:50S 32°53' E 151°46'0 0.0
2018-Apr-15 16:29S 32°53' E 151°46'0 0.0
2018-Apr-15 15:56S 32°53' E 151°46'0 0.0
2018-Apr-15 15:29S 32°53' E 151°46'0 0.0
2018-Apr-15 14:59S 32°53' E 151°46'0 0.0
2018-Apr-15 14:20S 32°53' E 151°46'0 0.0
2018-Apr-15 13:59S 32°53' E 151°46'0 0.0
2018-Apr-15 13:29S 32°53' E 151°46'0 0.0
2018-Apr-15 12:59S 32°53' E 151°46'0 0.0
2018-Apr-15 12:29S 32°53' E 151°46'0 0.0
2018-Apr-15 11:59S 32°53' E 151°46'0 0.0
2018-Apr-15 11:29S 32°53' E 151°46'0 0.0
2018-Apr-15 10:59S 32°53' E 151°46'0 0.0
2018-Apr-15 10:29S 32°53' E 151°46'0 0.0
2018-Apr-15 09:59S 32°53' E 151°46'0 0.0
2018-Apr-15 09:29S 32°53' E 151°46'0 0.0
2018-Apr-15 08:59S 32°53' E 151°46'0 0.0
2018-Apr-15 08:29S 32°53' E 151°46'0 0.0
2018-Apr-15 07:59S 32°53' E 151°46'0 0.0
2018-Apr-15 07:29S 32°53' E 151°46'0 0.0
2018-Apr-15 06:59S 32°53' E 151°46'0 0.0
2018-Apr-15 06:29S 32°53' E 151°46'0 0.0
2018-Apr-15 05:59S 32°53' E 151°46'0 0.0
2018-Apr-15 05:29S 32°53' E 151°46'0 0.0
2018-Apr-15 04:59S 32°53' E 151°46'0 0.0
2018-Apr-15 04:29S 32°53' E 151°46'0 0.0
2018-Apr-15 03:59S 32°53' E 151°46'0 0.0
2018-Apr-15 03:29S 32°53' E 151°46'0 0.0
2018-Apr-15 02:59S 32°53' E 151°46'0 0.0
2018-Apr-15 02:29S 32°53' E 151°46'0 0.0
2018-Apr-15 01:59S 32°53' E 151°46'0 0.8
2018-Apr-15 01:30S 32°53' E 151°46'2 3.4
2018-Apr-15 01:00S 32°55' E 151°47'4 7.1
2018-Apr-15 00:30S 32°55' E 151°51'4 8.6
2018-Apr-15 00:00S 32°59' E 151°53'3 6.3
2018-Apr-14 23:30S 33°01' E 151°55'4 8.7
2018-Apr-14 23:00S 33°05' E 151°58'4 8.1
2018-Apr-14 22:30S 33°09' E 152°00'5 9.6
2018-Apr-14 22:00S 33°13' E 152°03'14 1.9
2018-Apr-14 14:19S 33°27' E 152°04'1 2.2
2018-Apr-14 14:00S 33°26' E 152°03'1 1.7
2018-Apr-14 13:30S 33°26' E 152°03'1 1.7
2018-Apr-14 13:00S 33°25' E 152°03'1 1.9
2018-Apr-14 12:30S 33°24' E 152°03'1 2.2
2018-Apr-14 12:00S 33°23' E 152°04'1 2.6
2018-Apr-14 11:30S 33°21' E 152°03'1 2.6
2018-Apr-14 11:00S 33°20' E 152°04'1 2.7
2018-Apr-14 10:29S 33°19' E 152°04'2 2.9
2018-Apr-14 09:57S 33°17' E 152°04'1 3.0
2018-Apr-14 09:30S 33°16' E 152°04'1 2.9
2018-Apr-14 09:00S 33°14' E 152°05'1 2.4
2018-Apr-14 08:29S 33°13' E 152°06'1 2.9
2018-Apr-14 08:00S 33°12' E 152°06'1 2.1
2018-Apr-14 07:30S 33°11' E 152°07'1 1.3
2018-Apr-14 07:00S 33°11' E 152°07'1 1.6
2018-Apr-14 06:30S 33°10' E 152°08'1 2.0
2018-Apr-14 06:00S 33°09' E 152°08'1 1.9
2018-Apr-14 05:30S 33°08' E 152°09'1 2.1
2018-Apr-14 05:00S 33°07' E 152°09'1 2.4
2018-Apr-14 04:30S 33°06' E 152°10'1 2.7
2018-Apr-14 04:00S 33°05' E 152°10'1 2.9
2018-Apr-14 03:30S 33°04' E 152°11'1 1.7
2018-Apr-14 03:00S 33°03' E 152°12'1 1.5
2018-Apr-14 02:30S 33°03' E 152°13'1 1.6
2018-Apr-14 02:00S 33°02' E 152°14'1 1.3
2018-Apr-14 01:30S 33°02' E 152°14'1 1.3
2018-Apr-14 01:00S 33°02' E 152°15'1 1.0
2018-Apr-14 00:29S 33°01' E 152°16'0 0.8
2018-Apr-13 23:59S 33°01' E 152°16'0 0.8
2018-Apr-13 23:29S 33°01' E 152°16'0 0.8
2018-Apr-13 22:59S 33°01' E 152°17'0 0.8
2018-Apr-13 22:29S 33°00' E 152°17'0 0.7
2018-Apr-13 21:59S 33°00' E 152°17'0 0.6
2018-Apr-13 21:29S 32°60' E 152°17'0 0.8
2018-Apr-13 20:59S 32°59' E 152°17'1 1.0
2018-Apr-13 20:26S 32°59' E 152°17'0 1.1
2018-Apr-13 19:59S 32°58' E 152°17'1 1.4
2018-Apr-13 19:29S 32°58' E 152°17'0 0.4
2018-Apr-13 18:59S 32°58' E 152°17'0 0.6
2018-Apr-13 18:29S 32°57' E 152°17'0 0.6
2018-Apr-13 17:59S 32°57' E 152°18'0 0.3
2018-Apr-13 17:29S 32°57' E 152°18'0 0.4
2018-Apr-13 16:59S 32°57' E 152°18'1 2.6
2018-Apr-13 16:30S 32°58' E 152°19'713.8
2018-Apr-13 16:00S 33°04' E 152°23'713.9
2018-Apr-13 15:30S 33°10' E 152°27'713.1
2018-Apr-13 15:00S 33°15' E 152°32'2 5.0
2018-Apr-13 14:30S 33°17' E 152°34'2 4.2
2018-Apr-13 14:00S 33°15' E 152°34'2 3.1
2018-Apr-13 13:30S 33°13' E 152°34'1 2.8
2018-Apr-13 13:00S 33°12' E 152°33'1 2.7
2018-Apr-13 12:30S 33°11' E 152°33'1 2.6
2018-Apr-13 12:00S 33°09' E 152°32'1 2.6
2018-Apr-13 11:30S 33°08' E 152°32'1 2.4
2018-Apr-13 11:00S 33°07' E 152°31'1 2.4
2018-Apr-13 10:30S 33°06' E 152°30'1 2.5
2018-Apr-13 10:00S 33°05' E 152°29'1 2.4
2018-Apr-13 09:30S 33°05' E 152°28'1 2.4
2018-Apr-13 09:00S 33°04' E 152°27'1 2.1
2018-Apr-13 08:30S 33°03' E 152°26'1 2.0
2018-Apr-13 07:59S 33°02' E 152°26'1 1.9
2018-Apr-13 07:30S 33°01' E 152°25'1 1.7
2018-Apr-13 07:00S 33°00' E 152°25'1 1.7
2018-Apr-13 06:30S 32°59' E 152°25'1 1.8
2018-Apr-13 06:00S 32°59' E 152°24'1 1.8
2018-Apr-13 05:29S 32°58' E 152°24'1 1.6
2018-Apr-13 05:00S 32°57' E 152°24'1 1.6
2018-Apr-13 04:30S 32°56' E 152°24'1 1.5
2018-Apr-13 04:00S 32°55' E 152°24'1 1.3
2018-Apr-13 03:30S 32°55' E 152°24'1 1.2
2018-Apr-13 03:00S 32°54' E 152°24'0 0.9
2018-Apr-13 02:30S 32°54' E 152°25'0 0.5
2018-Apr-13 02:00S 32°54' E 152°25'0 0.3
2018-Apr-13 01:30S 32°53' E 152°25'0 0.3
2018-Apr-13 01:00S 32°53' E 152°25'0 0.3
2018-Apr-13 00:30S 32°53' E 152°25'0 0.2
2018-Apr-13 00:00S 32°53' E 152°25'0 0.3
2018-Apr-12 23:30S 32°53' E 152°25'0 0.8
2018-Apr-12 23:00S 32°53' E 152°25'0 0.5
2018-Apr-12 22:30S 32°52' E 152°25'3 6.8
2018-Apr-12 22:00S 32°50' E 152°28'713.2
2018-Apr-12 21:30S 32°46' E 152°34'713.8
2018-Apr-12 21:01S 32°41' E 152°40'815.9
2018-Apr-12 20:31S 32°37' E 152°48'816.4
2018-Apr-12 20:00S 32°31' E 152°55'5214.3
2018-Apr-12 16:20S 31°56' E 153°41'22113.5
2018-Apr-11 23:57S 28°17' E 154°13'613.0
2018-Apr-11 23:31S 28°12' E 154°13'713.0
2018-Apr-11 23:00S 28°05' E 154°13'712.5
2018-Apr-11 22:28S 27°58' E 154°12'  

Dump ship's entire track history